createdAt,value
2022-09-18T00:02:23.318Z,10.49
2022-09-18T00:12:25.592Z,10.45
2022-09-18T00:22:26.939Z,10.51
2022-09-18T00:32:28.264Z,10.45
2022-09-18T00:42:29.619Z,10.58
2022-09-18T00:52:31.003Z,10.57
2022-09-18T01:02:32.393Z,10.58
2022-09-18T01:12:34.187Z,10.51
2022-09-18T01:22:35.631Z,10.46
2022-09-18T01:32:36.845Z,10.51
2022-09-18T01:42:38.149Z,10.58
2022-09-18T01:52:39.523Z,10.62
2022-09-18T02:02:41.316Z,10.50
2022-09-18T02:12:42.670Z,10.56
2022-09-18T02:22:44.004Z,10.55
2022-09-18T02:32:45.333Z,10.53
2022-09-18T02:42:46.718Z,10.52
2022-09-18T02:52:48.115Z,10.41
2022-09-18T03:02:49.653Z,10.48
2022-09-18T03:12:51.082Z,10.46
2022-09-18T03:22:52.429Z,10.52
2022-09-18T03:32:53.758Z,10.51
2022-09-18T03:42:55.062Z,10.50
2022-09-18T03:52:56.613Z,10.39
2022-09-18T04:02:57.992Z,10.29
2022-09-18T04:12:59.334Z,10.31
2022-09-18T04:23:00.654Z,10.28
2022-09-18T04:33:02.354Z,10.28
2022-09-18T04:43:03.602Z,10.37
2022-09-18T04:53:04.943Z,10.44
2022-09-18T05:03:06.273Z,10.48
2022-09-18T05:13:07.584Z,10.31
2022-09-18T05:23:27.265Z,10.37
2022-09-18T05:33:28.667Z,10.27
2022-09-18T05:43:29.976Z,10.27
2022-09-18T05:53:31.351Z,10.30
2022-09-18T06:03:32.683Z,10.34
2022-09-18T06:13:34.013Z,10.55
2022-09-18T06:23:35.345Z,10.69
2022-09-18T06:33:36.765Z,10.84
2022-09-18T06:43:38.083Z,10.81
2022-09-18T06:53:39.385Z,10.89
2022-09-18T07:03:40.684Z,10.96
2022-09-18T07:13:42.241Z,11.10
2022-09-18T07:23:43.591Z,11.04
2022-09-18T07:33:44.850Z,11.46
2022-09-18T07:43:46.159Z,11.97
2022-09-18T07:53:47.409Z,12.04
2022-09-18T08:03:48.705Z,11.95
2022-09-18T08:13:50.036Z,12.26
2022-09-18T08:23:51.266Z,12.25
2022-09-18T08:33:53.251Z,12.21
2022-09-18T08:43:54.563Z,12.38
2022-09-18T08:53:55.990Z,12.61
2022-09-18T09:03:57.275Z,13.21
2022-09-18T09:13:58.620Z,13.12
2022-09-18T09:23:59.970Z,13.79
2022-09-18T09:34:01.344Z,13.89
2022-09-18T09:44:02.650Z,14.17
2022-09-18T09:54:04.019Z,14.96
2022-09-18T10:04:05.432Z,15.03
2022-09-18T10:14:06.775Z,15.11
2022-09-18T10:24:08.017Z,15.21
2022-09-18T10:34:09.349Z,15.44
2022-09-18T10:44:10.898Z,15.80
2022-09-18T10:54:12.231Z,15.79
2022-09-18T11:04:13.561Z,15.60
2022-09-18T11:14:14.797Z,16.04
2022-09-18T11:24:16.259Z,15.62
2022-09-18T11:34:17.580Z,16.07
2022-09-18T11:44:18.851Z,15.97
2022-09-18T11:54:20.081Z,16.51
2022-09-18T12:04:21.398Z,15.88
2022-09-18T12:14:21.748Z,15.48
2022-09-18T12:24:23.054Z,16.26
2022-09-18T12:34:24.365Z,15.91
2022-09-18T12:44:26.517Z,16.03
2022-09-18T12:54:27.855Z,15.51
2022-09-18T13:04:29.155Z,15.14
2022-09-18T13:14:30.455Z,15.40
2022-09-18T13:24:35.475Z,15.36
2022-09-18T13:34:36.736Z,15.28
2022-09-18T13:44:38.045Z,15.51
2022-09-18T13:54:40.082Z,15.30
2022-09-18T14:04:43.094Z,15.20
2022-09-18T14:14:44.340Z,15.21
2022-09-18T14:24:45.791Z,15.17
2022-09-18T14:34:47.103Z,15.13
2022-09-18T14:44:48.341Z,15.04
2022-09-18T14:54:49.692Z,14.96
2022-09-18T15:04:51.116Z,14.88
2022-09-18T15:14:52.638Z,14.85
2022-09-18T15:24:54.667Z,14.87
2022-09-18T15:34:55.986Z,14.89
2022-09-18T15:44:57.320Z,14.86
2022-09-18T15:54:58.648Z,14.90
2022-09-18T16:04:59.903Z,15.02
2022-09-18T16:15:01.215Z,14.96
2022-09-18T16:25:02.604Z,14.78
2022-09-18T16:35:04.007Z,14.71
2022-09-18T16:45:05.306Z,14.57
2022-09-18T16:55:07.360Z,14.48
2022-09-18T17:05:08.593Z,14.41
2022-09-18T17:15:09.901Z,14.46
2022-09-18T17:25:12.355Z,14.35
2022-09-18T17:35:13.678Z,14.30
2022-09-18T17:45:15.042Z,14.30
2022-09-18T17:55:16.429Z,14.37
2022-09-18T18:05:17.772Z,14.41
2022-09-18T18:15:19.533Z,14.37
2022-09-18T18:25:23.605Z,14.31
2022-09-18T18:35:25.143Z,14.25
2022-09-18T18:45:26.478Z,14.12
2022-09-18T18:55:27.808Z,14.14
2022-09-18T19:05:30.419Z,14.15
2022-09-18T19:15:33.812Z,14.06
2022-09-18T19:25:36.926Z,13.96
2022-09-18T19:35:38.222Z,13.72
2022-09-18T19:45:39.861Z,13.54
2022-09-18T19:55:44.438Z,13.44
2022-09-18T20:05:45.741Z,13.39
2022-09-18T20:15:47.106Z,13.45
2022-09-18T20:25:49.729Z,13.38
2022-09-18T20:35:53.149Z,13.46
2022-09-18T20:45:54.524Z,13.45
2022-09-18T20:55:55.833Z,13.42
2022-09-18T21:06:18.813Z,13.42
2022-09-18T21:16:20.566Z,13.45
2022-09-18T21:26:21.925Z,13.44
2022-09-18T21:36:23.301Z,13.30
2022-09-18T21:46:25.373Z,13.30
2022-09-18T21:56:26.715Z,12.88
2022-09-18T22:06:28.276Z,12.73
2022-09-18T22:16:29.694Z,12.26
2022-09-18T22:26:31.227Z,9.57
2022-09-18T22:36:32.529Z,9.45
2022-09-18T22:46:33.875Z,9.50
2022-09-18T22:56:36.214Z,9.61
2022-09-18T23:06:37.509Z,9.83
2022-09-18T23:16:39.026Z,9.89
2022-09-18T23:26:40.428Z,9.72
2022-09-18T23:36:41.841Z,9.38
2022-09-18T23:46:43.279Z,9.11
2022-09-18T23:56:44.606Z,8.99
